Time;durP1;ratioP1;P1;durP2;ratioP2;P2;SDS_P1;SDS_P2;PMS_P1;PMS_P2;Temp;Humidity;BMP_temperature;BMP_pressure;BME280_temperature;BME280_humidity;BME280_pressure;Samples;Min_cycle;Max_cycle;Signal;HPM_P1;HPM_P2
2023/09/22 00:00:10;;;;;;;12.52;3.40;;;;;;;24.67;58.74;97946.53;2065258;28;20057;-62
2023/09/22 00:01:12;;;;;;;8.95;3.63;;;;;;;24.68;58.71;97945.47;2062429;28;20050;-63
2023/09/22 00:02:13;;;;;;;10.75;3.33;;;;;;;24.70;58.64;97943.28;2061981;28;20053;-62
2023/09/22 00:03:15;;;;;;;5.90;2.65;;;;;;;24.72;58.72;97951.19;2067872;28;20141;-62
2023/09/22 00:04:16;;;;;;;8.88;3.03;;;;;;;24.73;58.26;97941.94;2064854;28;20061;-62
2023/09/22 00:05:18;;;;;;;8.10;3.25;;;;;;;24.74;58.42;97940.91;2062531;28;20046;-63
2023/09/22 00:06:22;;;;;;;13.35;3.15;;;;;;;24.69;58.82;97936.25;2063317;28;20046;-62
2023/09/22 00:07:24;;;;;;;7.13;3.92;;;;;;;24.65;59.01;97940.53;2065900;28;20867;-63
2023/09/22 00:08:25;;;;;;;10.43;4.13;;;;;;;24.65;59.45;97926.97;2064542;28;20054;-63
2023/09/22 00:09:27;;;;;;;5.50;2.45;;;;;;;24.69;59.14;97930.81;2064019;28;20053;-62
2023/09/22 00:10:28;;;;;;;10.00;3.65;;;;;;;24.66;59.37;97927.81;2060592;28;20136;-62
2023/09/22 00:11:30;;;;;;;7.80;2.42;;;;;;;24.67;59.21;97927.53;2060493;28;20058;-63
2023/09/22 00:12:33;;;;;;;12.48;3.03;;;;;;;24.65;58.76;97929.69;2062629;28;20160;-63
2023/09/22 00:13:35;;;;;;;6.18;2.28;;;;;;;24.66;59.26;97930.53;2062101;28;20064;-62
2023/09/22 00:14:37;;;;;;;7.95;3.53;;;;;;;24.66;58.95;97923.19;2065360;28;20058;-63
2023/09/22 00:15:38;;;;;;;9.98;2.85;;;;;;;24.68;59.13;97929.19;2065213;28;20480;-62
2023/09/22 00:16:41;;;;;;;7.70;2.92;;;;;;;24.67;58.76;97922.13;2063455;28;20536;-63
2023/09/22 00:17:42;;;;;;;12.50;2.95;;;;;;;24.66;58.92;97927.81;2065216;28;20525;-63
2023/09/22 00:18:44;;;;;;;9.00;3.60;;;;;;;24.63;59.10;97918.31;2064810;28;20077;-63
2023/09/22 00:19:45;;;;;;;9.05;4.22;;;;;;;24.63;59.32;97923.72;2065579;28;20086;-63
2023/09/22 00:20:47;;;;;;;15.82;3.75;;;;;;;24.64;59.19;97919.13;2065567;28;20119;-62
2023/09/22 00:21:48;;;;;;;9.02;2.97;;;;;;;24.63;59.04;97915.59;2064220;28;20126;-63
2023/09/22 00:22:50;;;;;;;10.80;4.10;;;;;;;24.64;59.34;97919.94;2067697;28;20053;-63
2023/09/22 00:23:51;;;;;;;11.80;3.88;;;;;;;24.66;58.97;97923.19;2064006;28;20140;-62
2023/09/22 00:24:53;;;;;;;12.63;4.00;;;;;;;24.67;59.00;97921.31;2061179;28;20056;-63
2023/09/22 00:25:54;;;;;;;8.73;2.60;;;;;;;24.65;59.04;97921.56;2062002;28;20095;-62
2023/09/22 00:26:56;;;;;;;7.32;3.30;;;;;;;24.68;59.16;97915.63;2062986;28;20537;-63
2023/09/22 00:27:59;;;;;;;10.93;2.85;;;;;;;24.65;58.72;97918.84;2065030;28;20074;-62
2023/09/22 00:29:01;;;;;;;13.65;3.03;;;;;;;24.64;59.29;97917.22;2066036;28;20050;-63
2023/09/22 00:30:02;;;;;;;12.90;2.85;;;;;;;24.58;59.52;97918.25;2064251;28;20049;-63
2023/09/22 00:31:05;;;;;;;8.85;3.10;;;;;;;24.58;59.54;97922.88;2063783;28;20145;-62
2023/09/22 00:32:06;;;;;;;10.05;4.13;;;;;;;24.60;59.29;97913.41;2066446;28;20864;-63
2023/09/22 00:33:08;;;;;;;8.82;3.42;;;;;;;24.62;59.05;97907.72;2064270;28;20061;-63
2023/09/22 00:34:09;;;;;;;13.85;3.15;;;;;;;24.61;59.27;97912.31;2063264;28;20521;-63
2023/09/22 00:35:12;;;;;;;6.18;3.47;;;;;;;24.61;59.15;97906.09;2063309;28;20144;-63
2023/09/22 00:36:14;;;;;;;11.13;3.28;;;;;;;24.65;59.11;97902.56;2064558;28;20160;-62
2023/09/22 00:37:16;;;;;;;9.95;3.00;;;;;;;24.68;59.36;97896.66;2066088;28;20435;-62
2023/09/22 00:38:17;;;;;;;13.45;3.53;;;;;;;24.70;59.08;97902.59;2067487;28;20140;-63
2023/09/22 00:39:18;;;;;;;11.68;3.92;;;;;;;24.66;59.58;97901.50;2062495;28;20788;-62
2023/09/22 00:40:20;;;;;;;12.77;3.65;;;;;;;24.66;59.24;97896.09;2062609;28;20061;-62
2023/09/22 00:41:21;;;;;;;9.82;3.13;;;;;;;24.66;59.26;97898.00;2060765;28;20677;-62
2023/09/22 00:42:23;;;;;;;9.98;3.15;;;;;;;24.65;59.09;97897.16;2064737;28;20104;-63
2023/09/22 00:43:26;;;;;;;8.73;3.30;;;;;;;24.66;59.04;97882.53;2060879;28;20672;-63
2023/09/22 00:44:28;;;;;;;11.27;3.80;;;;;;;24.64;59.40;97886.59;2065185;28;20053;-62
2023/09/22 00:45:29;;;;;;;8.10;3.85;;;;;;;24.64;59.22;97887.38;2063847;28;20120;-62
2023/09/22 00:46:31;;;;;;;10.68;3.47;;;;;;;24.64;59.58;97894.72;2065637;28;20053;-63
2023/09/22 00:47:33;;;;;;;10.00;3.45;;;;;;;24.63;59.15;97893.91;2060382;28;20050;-62
2023/09/22 00:48:36;;;;;;;9.05;2.88;;;;;;;24.61;59.60;97890.63;2064855;28;20042;-63
2023/09/22 00:49:37;;;;;;;10.80;4.13;;;;;;;24.59;59.64;97891.97;2063455;28;20047;-62
2023/09/22 00:50:39;;;;;;;8.15;3.30;;;;;;;24.57;59.39;97892.22;2063598;28;20046;-62
2023/09/22 00:51:40;;;;;;;10.98;3.45;;;;;;;24.59;59.37;97892.78;2058734;28;20436;-62
2023/09/22 00:52:43;;;;;;;10.57;3.10;;;;;;;24.62;59.70;97889.53;2064136;28;20042;-63
2023/09/22 00:53:44;;;;;;;11.93;3.55;;;;;;;24.62;59.63;97889.53;2063349;28;20049;-63
2023/09/22 00:54:45;;;;;;;8.73;2.90;;;;;;;24.64;59.51;97886.59;2062469;28;20050;-63
2023/09/22 00:55:50;;;;;;;11.85;3.65;;;;;;;24.58;59.50;97891.16;2064504;28;20059;-62
2023/09/22 00:56:52;;;;;;;8.25;3.15;;;;;;;24.56;59.35;97893.28;2062911;28;20061;-62
2023/09/22 00:57:54;;;;;;;14.32;3.40;;;;;;;24.56;59.35;97887.88;2061509;28;20038;-63
2023/09/22 00:58:57;;;;;;;6.47;3.88;;;;;;;24.58;59.51;97893.88;2062235;28;20062;-63
2023/09/22 00:59:59;;;;;;;10.77;2.70;;;;;;;24.61;59.38;97896.06;2064165;28;20433;-63
2023/09/22 01:01:01;;;;;;;9.57;3.42;;;;;;;24.62;58.97;97888.72;2061639;28;20061;-62
2023/09/22 01:02:03;;;;;;;8.45;3.40;;;;;;;24.61;59.37;97889.81;2052305;28;20104;-62
2023/09/22 01:03:04;;;;;;;13.07;3.50;;;;;;;24.60;59.49;97886.28;2060498;28;20054;-62
2023/09/22 01:04:06;;;;;;;7.05;3.15;;;;;;;24.60;59.05;97889.00;2058497;28;20101;-63
2023/09/22 01:05:08;;;;;;;8.60;2.75;;;;;;;24.63;59.13;97885.78;2063452;28;20046;-63
2023/09/22 01:06:10;;;;;;;13.75;2.80;;;;;;;24.63;59.32;97877.63;2063239;28;20077;-62
2023/09/22 01:07:11;;;;;;;6.43;3.00;;;;;;;24.63;59.17;97882.25;2063667;28;20054;-62
2023/09/22 01:08:13;;;;;;;11.35;3.70;;;;;;;24.59;58.99;97884.63;2065360;28;20140;-63
2023/09/22 01:09:15;;;;;;;9.63;4.30;;;;;;;24.54;59.52;97881.88;2062626;28;20104;-62
2023/09/22 01:10:17;;;;;;;12.63;4.35;;;;;;;24.54;59.44;97879.19;2062364;28;20137;-64
2023/09/22 01:11:18;;;;;;;8.65;2.83;;;;;;;24.58;59.21;97884.91;2066040;28;20545;-62
2023/09/22 01:12:20;;;;;;;12.50;3.67;;;;;;;24.58;59.45;97880.31;2062135;28;20139;-62
2023/09/22 01:13:21;;;;;;;13.40;3.28;;;;;;;24.52;59.25;97881.34;2066209;28;20050;-62
2023/09/22 01:14:24;;;;;;;8.05;2.90;;;;;;;24.56;59.21;97879.75;2059617;28;21323;-62
2023/09/22 01:15:25;;;;;;;8.27;3.28;;;;;;;24.57;59.23;97875.94;2062005;28;20066;-62
2023/09/22 01:16:27;;;;;;;10.18;3.47;;;;;;;24.62;58.75;97877.88;2067824;28;20599;-62
2023/09/22 01:17:28;;;;;;;9.60;3.40;;;;;;;24.67;58.82;97886.06;2063717;28;20073;-62
2023/09/22 01:18:30;;;;;;;6.30;3.92;;;;;;;24.69;58.26;97873.88;2066871;28;20642;-62
2023/09/22 01:19:31;;;;;;;6.28;3.33;;;;;;;24.70;58.82;97874.69;2060345;28;20132;-62
2023/09/22 01:20:39;;;;;;;6.75;3.10;;;;;;;24.68;58.42;97866.81;2061806;28;20057;-63
2023/09/22 01:21:42;;;;;;;10.40;3.63;;;;;;;24.69;58.66;97871.16;2063440;28;21371;-63
2023/09/22 01:22:44;;;;;;;5.93;2.92;;;;;;;24.63;58.26;97866.78;2062192;28;20057;-63
2023/09/22 01:23:45;;;;;;;7.47;3.53;;;;;;;24.61;59.20;97868.94;2061703;28;20668;-62
2023/09/22 01:24:47;;;;;;;12.18;3.72;;;;;;;24.63;58.84;97871.41;2058505;28;20112;-62
2023/09/22 01:25:48;;;;;;;13.45;3.97;;;;;;;24.69;58.52;97870.34;2060770;28;20107;-63
2023/09/22 01:26:49;;;;;;;7.57;2.85;;;;;;;24.72;58.38;97869.81;2057744;28;20132;-63
2023/09/22 01:27:50;;;;;;;9.43;3.53;;;;;;;24.72;58.53;97867.91;2062058;28;20054;-62
2023/09/22 01:28:52;;;;;;;12.50;3.53;;;;;;;24.73;58.61;97871.44;2062417;28;20057;-63
2023/09/22 01:29:53;;;;;;;8.98;3.78;;;;;;;24.74;58.09;97870.38;2063273;28;20084;-63
2023/09/22 01:30:56;;;;;;;10.95;3.78;;;;;;;24.77;57.85;97869.00;2062912;28;20053;-62
2023/09/22 01:31:56;;;;;;;7.38;2.72;;;;;;;24.81;57.58;97870.94;2060129;28;20159;-61
2023/09/22 01:32:58;;;;;;;7.95;3.75;;;;;;;24.82;57.76;97869.06;2062438;28;20058;-61
2023/09/22 01:34:00;;;;;;;5.35;2.42;;;;;;;24.82;57.17;97864.44;2064002;28;20665;-61
2023/09/22 01:35:01;;;;;;;6.63;2.67;;;;;;;24.84;57.33;97872.31;2060593;28;20058;-60
2023/09/22 01:36:03;;;;;;;9.68;2.92;;;;;;;24.85;57.35;97871.22;2062237;28;20058;-60
2023/09/22 01:37:07;;;;;;;7.47;3.50;;;;;;;24.87;57.19;97875.31;2064303;28;20050;-61
2023/09/22 01:38:14;;;;;;;8.00;3.40;;;;;;;24.88;57.14;97873.44;2063740;28;20068;-61
2023/09/22 01:39:16;;;;;;;8.30;2.70;;;;;;;24.86;57.33;97864.75;2060686;28;20870;-61
2023/09/22 01:40:18;;;;;;;9.23;2.85;;;;;;;24.82;57.88;97859.00;2061101;28;20061;-61
2023/09/22 01:41:19;;;;;;;9.13;3.10;;;;;;;24.81;57.66;97854.69;2063289;28;20046;-60
2023/09/22 01:42:21;;;;;;;8.27;3.88;;;;;;;24.82;57.44;97863.63;2064973;28;20189;-60
2023/09/22 01:43:22;;;;;;;9.48;2.80;;;;;;;24.61;58.92;97862.72;2059633;28;20174;-61
2023/09/22 01:44:24;;;;;;;14.73;2.92;;;;;;;24.60;58.98;97856.47;2061254;28;20268;-60
2023/09/22 01:45:25;;;;;;;9.68;3.72;;;;;;;24.58;58.62;97863.22;2062273;28;21323;-61
2023/09/22 01:46:27;;;;;;;9.10;2.67;;;;;;;24.55;58.62;97864.56;2064876;28;20116;-61
2023/09/22 01:47:28;;;;;;;8.52;3.13;;;;;;;24.52;58.98;97865.91;2061447;28;20375;-60
2023/09/22 01:48:30;;;;;;;9.20;2.75;;;;;;;24.54;59.02;97868.34;2062689;28;20057;-60
2023/09/22 01:49:31;;;;;;;14.90;3.97;;;;;;;24.52;59.11;97865.91;2063566;28;20119;-61
2023/09/22 01:50:35;;;;;;;10.32;3.28;;;;;;;24.53;59.00;97858.59;2061479;28;20077;-61
2023/09/22 01:51:38;;;;;;;11.15;3.88;;;;;;;24.42;59.24;97871.22;2063508;28;20049;-61
2023/09/22 01:52:42;;;;;;;5.53;3.17;;;;;;;24.43;59.53;97867.47;2064019;28;20136;-61
2023/09/22 01:53:43;;;;;;;6.90;2.97;;;;;;;24.35;59.60;97865.22;2063171;28;20552;-61
2023/09/22 01:54:45;;;;;;;12.23;3.78;;;;;;;24.31;60.39;97862.19;2062175;28;20046;-61
2023/09/22 01:55:46;;;;;;;8.75;3.58;;;;;;;24.20;60.73;97867.78;2062858;28;20053;-61
2023/09/22 01:56:48;;;;;;;14.77;3.67;;;;;;;24.08;61.47;97863.38;2064617;28;20077;-61
2023/09/22 01:57:50;;;;;;;7.63;4.07;;;;;;;24.16;60.50;97859.38;2059889;28;20050;-60
2023/09/22 01:58:52;;;;;;;7.40;3.78;;;;;;;24.17;60.52;97858.28;2063224;28;20054;-60
2023/09/22 01:59:53;;;;;;;14.90;4.30;;;;;;;24.20;60.92;97855.06;2058969;28;20045;-60
2023/09/22 02:00:55;;;;;;;8.77;3.25;;;;;;;24.06;61.46;97859.28;2057968;28;20058;-61
2023/09/22 02:01:56;;;;;;;11.88;4.03;;;;;;;23.99;61.41;97853.28;2061867;28;20327;-61
2023/09/22 02:02:57;;;;;;;8.43;4.15;;;;;;;23.95;61.63;97857.56;2060551;28;20424;-61
2023/09/22 02:03:59;;;;;;;12.13;3.78;;;;;;;23.87;61.92;97853.41;2062265;28;20535;-61
2023/09/22 02:05:00;;;;;;;19.02;3.78;;;;;;;23.83;62.54;97852.31;2060645;28;20050;-61
2023/09/22 02:06:04;;;;;;;14.43;3.50;;;;;;;23.86;62.16;97858.00;2062804;28;20775;-61
2023/09/22 02:07:05;;;;;;;14.65;4.38;;;;;;;23.87;62.22;97856.13;2063718;28;20631;-61
2023/09/22 02:08:09;;;;;;;12.77;4.18;;;;;;;23.85;62.04;97861.81;2063879;28;20056;-59
2023/09/22 02:09:10;;;;;;;9.55;3.80;;;;;;;23.84;62.09;97862.88;2058137;28;20061;-60
2023/09/22 02:10:13;;;;;;;7.47;3.45;;;;;;;23.84;62.02;97862.88;2059899;28;20140;-60
2023/09/22 02:11:16;;;;;;;10.50;3.20;;;;;;;23.83;62.27;97863.94;2063779;28;21734;-60
2023/09/22 02:12:17;;;;;;;11.77;3.90;;;;;;;23.80;62.33;97864.47;2063755;28;20536;-61
2023/09/22 02:13:19;;;;;;;8.48;3.00;;;;;;;23.75;62.64;97864.41;2065015;28;20050;-60
2023/09/22 02:14:20;;;;;;;10.98;5.35;;;;;;;23.77;62.37;97859.56;2059029;28;20062;-61
2023/09/22 02:15:22;;;;;;;10.73;3.53;;;;;;;23.74;62.78;97859.28;2062950;28;20049;-60
2023/09/22 02:16:23;;;;;;;10.88;3.78;;;;;;;23.74;62.48;97859.28;2063957;28;20042;-61
2023/09/22 02:17:25;;;;;;;10.15;3.78;;;;;;;23.73;62.26;97860.31;2060228;28;20065;-61
2023/09/22 02:18:26;;;;;;;8.88;4.20;;;;;;;23.68;62.34;97861.06;2063035;28;20105;-58
2023/09/22 02:19:29;;;;;;;14.25;4.50;;;;;;;23.60;63.33;97858.81;2060882;28;20151;-60
2023/09/22 02:20:31;;;;;;;10.63;3.13;;;;;;;23.61;63.10;97849.63;2061269;28;20050;-61
2023/09/22 02:21:33;;;;;;;10.07;3.40;;;;;;;23.63;62.51;97856.41;2063155;28;20425;-60
2023/09/22 02:22:35;;;;;;;13.55;3.45;;;;;;;23.63;63.18;97861.03;2063854;28;20145;-60
2023/09/22 02:23:38;;;;;;;7.72;2.78;;;;;;;23.54;63.37;97859.81;2058719;28;20130;-60
2023/09/22 02:24:39;;;;;;;11.73;3.42;;;;;;;23.55;63.10;97858.78;2060878;28;20058;-60
2023/09/22 02:25:41;;;;;;;11.48;3.35;;;;;;;23.55;63.04;97858.78;2063239;28;20474;-60
2023/09/22 02:26:43;;;;;;;11.23;4.10;;;;;;;23.52;63.04;97851.97;2059760;28;20103;-60
2023/09/22 02:27:44;;;;;;;9.15;3.10;;;;;;;23.53;63.54;97855.50;2064657;28;20611;-61
2023/09/22 02:28:51;;;;;;;10.20;3.22;;;;;;;23.53;63.32;97860.91;2057935;28;20049;-61
2023/09/22 02:29:52;;;;;;;9.82;4.32;;;;;;;23.54;63.12;97857.13;2061153;28;20456;-61
2023/09/22 02:30:53;;;;;;;7.90;3.00;;;;;;;23.52;63.40;97851.16;2062165;28;20054;-61
2023/09/22 02:31:54;;;;;;;5.78;3.03;;;;;;;23.51;63.50;97844.09;2061337;28;20138;-61
2023/09/22 02:32:56;;;;;;;10.65;3.03;;;;;;;23.49;63.16;97848.97;2062956;28;20053;-61
2023/09/22 02:33:57;;;;;;;9.00;3.70;;;;;;;23.48;63.18;97852.72;2060725;28;20046;-61
2023/09/22 02:34:59;;;;;;;15.32;3.22;;;;;;;23.44;63.39;97863.25;2062530;28;20057;-60
2023/09/22 02:36:04;;;;;;;10.80;3.30;;;;;;;23.48;63.30;97860.84;2062870;28;20100;-61
2023/09/22 02:37:07;;;;;;;8.32;3.60;;;;;;;23.50;63.40;97864.94;2063313;28;20049;-60
2023/09/22 02:38:08;;;;;;;13.75;3.60;;;;;;;23.50;63.08;97856.00;2058650;28;20243;-61
2023/09/22 02:39:11;;;;;;;7.03;3.58;;;;;;;23.49;63.20;97862.50;2062084;28;20641;-61
2023/09/22 02:40:13;;;;;;;11.88;3.45;;;;;;;23.44;63.55;97859.72;2059027;28;20053;-60
2023/09/22 02:41:15;;;;;;;9.25;3.40;;;;;;;23.40;63.61;97849.41;2064819;28;20058;-60
2023/09/22 02:42:17;;;;;;;9.85;4.32;;;;;;;23.44;63.38;97854.31;2065998;28;20107;-60
2023/09/22 02:43:19;;;;;;;11.10;4.50;;;;;;;23.42;63.42;97862.69;2064267;28;20441;-60
2023/09/22 02:44:19;;;;;;;7.72;3.22;;;;;;;23.42;63.47;97858.06;2062521;28;20578;-60
2023/09/22 02:45:22;;;;;;;9.85;3.13;;;;;;;23.35;63.58;97857.47;2061591;28;20093;-60
2023/09/22 02:46:23;;;;;;;15.20;3.72;;;;;;;23.39;63.97;97858.59;2062620;28;20108;-61
2023/09/22 02:47:26;;;;;;;13.88;3.40;;;;;;;23.47;63.26;97854.63;2066288;28;20050;-60
2023/09/22 02:48:28;;;;;;;9.25;4.30;;;;;;;23.50;63.23;97856.81;2057732;28;21044;-61
2023/09/22 02:49:30;;;;;;;15.48;3.60;;;;;;;23.48;63.37;97850.81;2064701;28;20066;-61
2023/09/22 02:50:32;;;;;;;9.48;3.10;;;;;;;23.47;63.30;97860.03;2062676;28;20075;-60
2023/09/22 02:51:33;;;;;;;14.43;4.90;;;;;;;23.40;63.84;97853.97;2062687;28;20096;-60
2023/09/22 02:52:34;;;;;;;10.75;3.78;;;;;;;23.36;63.64;97853.69;2062384;28;20520;-60
2023/09/22 02:53:36;;;;;;;13.45;3.67;;;;;;;23.33;63.99;97856.91;2062229;28;20066;-60
2023/09/22 02:54:39;;;;;;;11.82;3.83;;;;;;;23.29;63.90;97863.91;2061474;28;20504;-60
2023/09/22 02:55:41;;;;;;;8.30;2.67;;;;;;;23.33;63.89;97859.59;2063610;28;20688;-60
2023/09/22 02:56:42;;;;;;;9.90;3.55;;;;;;;23.35;63.66;97862.06;2064150;28;20053;-61
2023/09/22 02:57:45;;;;;;;10.07;3.08;;;;;;;23.32;63.75;97857.97;2060786;28;20046;-60
2023/09/22 02:58:48;;;;;;;14.00;4.00;;;;;;;23.33;63.89;97862.31;2052331;28;20045;-61
2023/09/22 02:59:52;;;;;;;14.77;3.75;;;;;;;23.29;64.01;97861.19;2065167;28;20061;-60
2023/09/22 03:00:54;;;;;;;5.15;3.00;;;;;;;23.28;63.93;97861.44;2062169;28;20074;-60
2023/09/22 03:01:55;;;;;;;18.00;4.38;;;;;;;23.26;64.21;97863.56;2064599;28;20659;-60
2023/09/22 03:02:57;;;;;;;10.77;3.65;;;;;;;23.23;64.02;97859.47;2060627;28;20210;-60
2023/09/22 03:03:58;;;;;;;15.27;3.00;;;;;;;23.27;63.74;97866.03;2060591;28;20058;-60
2023/09/22 03:05:01;;;;;;;13.77;4.28;;;;;;;23.35;63.57;97864.78;2061873;28;20057;-60
2023/09/22 03:06:02;;;;;;;10.70;3.88;;;;;;;23.45;62.99;97866.75;2062331;28;20137;-60
2023/09/22 03:07:04;;;;;;;9.95;4.30;;;;;;;23.41;63.10;97864.56;2055675;28;20470;-59
2023/09/22 03:08:05;;;;;;;14.10;2.80;;;;;;;23.41;63.27;97867.28;2063612;28;20050;-60
2023/09/22 03:09:07;;;;;;;15.27;3.08;;;;;;;23.41;63.00;97861.06;2060940;28;21156;-60
2023/09/22 03:10:10;;;;;;;9.85;4.30;;;;;;;23.33;63.52;97859.59;2058121;28;20053;-60
2023/09/22 03:11:12;;;;;;;14.70;3.00;;;;;;;23.31;63.80;97861.75;2064510;28;20054;-60
2023/09/22 03:12:13;;;;;;;21.95;4.70;;;;;;;23.27;63.86;97863.34;2063489;28;20054;-60
2023/09/22 03:13:15;;;;;;;13.90;3.55;;;;;;;23.25;63.98;97861.94;2066100;28;20120;-60
2023/09/22 03:14:16;;;;;;;12.10;3.83;;;;;;;23.26;63.86;97861.69;2061792;28;20073;-60
2023/09/22 03:15:18;;;;;;;11.88;3.40;;;;;;;23.25;64.30;97862.75;2058164;28;20046;-60
2023/09/22 03:16:19;;;;;;;10.15;2.70;;;;;;;23.19;63.92;97859.19;2060471;28;20053;-60
2023/09/22 03:17:21;;;;;;;15.52;3.92;;;;;;;23.22;64.04;97857.84;2062035;28;20137;-61
2023/09/22 03:18:23;;;;;;;13.60;3.40;;;;;;;23.23;63.93;97859.47;2062348;28;20162;-61
2023/09/22 03:19:25;;;;;;;8.20;2.40;;;;;;;23.24;64.07;97858.44;2060935;28;21676;-60
2023/09/22 03:20:26;;;;;;;12.55;3.30;;;;;;;23.27;64.00;97866.03;2064429;28;20851;-61
2023/09/22 03:21:28;;;;;;;10.75;3.50;;;;;;;23.26;64.04;97869.78;2061870;28;20050;-60
2023/09/22 03:22:29;;;;;;;11.88;4.03;;;;;;;23.26;63.95;97872.50;2063751;28;20532;-60
2023/09/22 03:23:31;;;;;;;6.90;3.42;;;;;;;23.27;63.87;97876.84;2060853;28;20049;-60
2023/09/22 03:24:32;;;;;;;10.85;3.90;;;;;;;23.24;64.30;97873.84;2059758;28;20089;-60
2023/09/22 03:25:36;;;;;;;17.02;4.68;;;;;;;23.25;63.90;97875.47;2063456;28;20096;-60
2023/09/22 03:26:37;;;;;;;14.13;3.22;;;;;;;23.29;63.75;97872.03;2062205;28;20053;-61
2023/09/22 03:27:39;;;;;;;17.35;4.63;;;;;;;23.38;63.04;97875.91;2064227;28;20437;-60
2023/09/22 03:28:40;;;;;;;10.00;3.92;;;;;;;23.39;63.47;97869.41;2066305;28;20500;-60
2023/09/22 03:29:41;;;;;;;7.43;2.92;;;;;;;23.34;63.67;97868.53;2064041;28;20199;-61
2023/09/22 03:30:43;;;;;;;13.68;3.50;;;;;;;23.34;63.48;97861.22;2064261;28;20047;-61
2023/09/22 03:31:45;;;;;;;8.95;3.08;;;;;;;23.27;63.74;97871.44;2064581;28;20042;-61
2023/09/22 03:32:46;;;;;;;15.07;5.13;;;;;;;23.28;63.65;97873.06;2065578;28;20046;-61
2023/09/22 03:33:48;;;;;;;7.75;3.58;;;;;;;23.28;63.77;97873.06;2064874;28;20088;-60
2023/09/22 03:34:49;;;;;;;6.93;3.25;;;;;;;23.27;63.79;97865.22;2062650;28;20080;-61
2023/09/22 03:35:51;;;;;;;13.10;3.30;;;;;;;23.33;63.43;97870.44;2060943;28;20061;-61
2023/09/22 03:36:53;;;;;;;13.32;3.78;;;;;;;23.32;63.51;97868.81;2065951;28;20128;-60
2023/09/22 03:37:55;;;;;;;8.15;3.20;;;;;;;23.26;63.86;97872.50;2061990;28;20095;-61
2023/09/22 03:38:57;;;;;;;12.15;3.08;;;;;;;23.26;63.93;97868.97;2065615;28;20077;-61
2023/09/22 03:40:09;;;;;;;10.80;3.40;;;;;;;23.27;63.74;97879.56;2057005;28;20092;-60
2023/09/22 03:41:12;;;;;;;10.18;3.67;;;;;;;23.34;63.33;97872.06;2063022;28;20081;-60
2023/09/22 03:42:14;;;;;;;6.35;3.97;;;;;;;23.31;63.74;97877.97;2062977;28;20138;-60
2023/09/22 03:43:16;;;;;;;14.43;3.38;;;;;;;23.31;64.00;97872.56;2064775;28;20136;-60
2023/09/22 03:44:17;;;;;;;16.92;4.57;;;;;;;23.26;63.52;97868.97;2063609;28;20054;-59
2023/09/22 03:45:18;;;;;;;12.18;4.13;;;;;;;23.24;64.14;97874.66;2064673;28;20054;-60
2023/09/22 03:46:20;;;;;;;14.13;5.05;;;;;;;23.20;64.29;97870.81;2055734;28;20465;-60
2023/09/22 03:47:21;;;;;;;13.05;4.63;;;;;;;23.19;64.23;97869.19;2063169;28;20061;-60
2023/09/22 03:48:22;;;;;;;18.83;4.18;;;;;;;23.19;64.35;97874.59;2064848;28;20054;-60
2023/09/22 03:49:24;;;;;;;7.00;3.13;;;;;;;23.20;64.28;97868.09;2065403;28;20084;-60
2023/09/22 03:50:25;;;;;;;12.13;4.20;;;;;;;23.19;64.06;97869.19;2064721;28;20100;-61
2023/09/22 03:51:28;;;;;;;9.77;3.72;;;;;;;23.19;64.38;97869.19;2062173;28;20690;-61
2023/09/22 03:52:29;;;;;;;8.73;3.88;;;;;;;23.18;64.28;97867.56;2062397;28;20144;-60
2023/09/22 03:53:31;;;;;;;7.97;4.40;;;;;;;23.19;64.74;97870.00;2062177;28;20066;-60
2023/09/22 03:54:32;;;;;;;7.68;3.35;;;;;;;23.27;63.94;97863.34;2060095;28;20197;-60
2023/09/22 03:55:34;;;;;;;9.82;3.10;;;;;;;23.41;63.11;97864.56;2063321;28;20149;-59
2023/09/22 03:56:37;;;;;;;7.68;3.38;;;;;;;23.47;62.95;97867.34;2060683;28;20075;-60
2023/09/22 03:57:39;;;;;;;9.45;4.20;;;;;;;23.46;63.21;97869.22;2059861;28;20557;-60
2023/09/22 03:58:41;;;;;;;12.75;4.03;;;;;;;23.55;62.68;97865.00;2064409;28;20054;-60
2023/09/22 03:59:43;;;;;;;12.18;2.80;;;;;;;23.59;62.33;97862.59;2061664;28;20099;-60
2023/09/22 04:00:44;;;;;;;11.15;3.30;;;;;;;23.64;62.23;97870.75;2063158;28;20053;-60
2023/09/22 04:01:46;;;;;;;13.98;3.55;;;;;;;23.52;62.96;97870.09;2064518;28;20062;-61
2023/09/22 04:02:47;;;;;;;13.07;3.45;;;;;;;23.43;63.18;97867.03;2062770;28;20456;-60
2023/09/22 04:03:50;;;;;;;14.52;4.60;;;;;;;23.39;63.40;97872.13;2066519;28;20045;-61
2023/09/22 04:04:51;;;;;;;10.52;3.40;;;;;;;23.35;63.37;97865.59;2064713;28;20049;-60
2023/09/22 04:05:54;;;;;;;12.98;3.83;;;;;;;23.34;63.42;97863.94;2064801;28;20429;-61
2023/09/22 04:06:55;;;;;;;10.90;3.38;;;;;;;23.34;62.87;97860.41;2061312;28;20053;-59
2023/09/22 04:07:57;;;;;;;11.15;3.50;;;;;;;23.28;63.77;97859.53;2063734;28;20046;-61
2023/09/22 04:09:02;;;;;;;8.10;4.40;;;;;;;23.26;63.68;97858.97;2064221;28;20057;-60
2023/09/22 04:10:04;;;;;;;9.10;3.55;;;;;;;23.28;63.72;97862.25;2063291;28;20046;-60
2023/09/22 04:11:06;;;;;;;12.63;3.40;;;;;;;23.24;63.76;97866.53;2063798;28;20589;-60
2023/09/22 04:12:11;;;;;;;8.55;3.70;;;;;;;23.28;63.69;97856.84;2062577;28;20054;-60
2023/09/22 04:13:12;;;;;;;13.13;3.83;;;;;;;23.22;64.18;97862.44;2063092;28;20560;-60
2023/09/22 04:14:14;;;;;;;11.20;4.20;;;;;;;23.22;64.03;97860.56;2064331;28;20062;-61
2023/09/22 04:15:15;;;;;;;9.32;3.60;;;;;;;23.18;64.39;97852.13;2061934;28;20053;-60
2023/09/22 04:16:17;;;;;;;13.35;3.67;;;;;;;23.14;64.39;97853.69;2065967;28;20515;-60
2023/09/22 04:17:19;;;;;;;16.00;4.75;;;;;;;23.13;64.60;97860.19;2066144;28;20053;-60
2023/09/22 04:18:21;;;;;;;15.02;4.22;;;;;;;23.12;64.57;97853.16;2060773;28;20046;-59
2023/09/22 04:19:22;;;;;;;16.05;5.32;;;;;;;23.14;64.49;97850.19;2065554;28;20119;-60
2023/09/22 04:20:32;;;;;;;17.30;5.03;;;;;;;23.19;64.15;97847.53;2063832;28;20053;-62
2023/09/22 04:21:35;;;;;;;21.60;6.53;;;;;;;23.21;64.43;97853.53;2061949;28;20054;-62
2023/09/22 04:22:37;;;;;;;19.15;4.60;;;;;;;23.23;64.36;97853.25;2060311;28;20054;-62
2023/09/22 04:23:44;;;;;;;18.35;5.03;;;;;;;23.25;63.81;97856.53;2059604;28;20537;-62
2023/09/22 04:24:50;;;;;;;13.82;3.90;;;;;;;23.26;63.90;97858.16;2057974;28;20054;-62
2023/09/22 04:25:54;;;;;;;12.73;4.15;;;;;;;23.24;64.08;97855.72;2066085;28;20081;-62
2023/09/22 04:26:56;;;;;;;20.00;4.60;;;;;;;23.26;63.99;97858.97;2064381;28;20816;-62
2023/09/22 04:28:07;;;;;;;15.40;4.28;;;;;;;23.19;63.98;97852.94;2063156;28;20521;-62
2023/09/22 04:29:09;;;;;;;14.57;4.93;;;;;;;23.17;64.31;97849.66;2065123;28;20054;-62
2023/09/22 04:30:15;;;;;;;13.00;4.43;;;;;;;23.13;64.67;97854.78;2064072;28;20054;-62
2023/09/22 04:31:17;;;;;;;10.32;4.28;;;;;;;23.12;64.63;97849.59;2063533;28;20104;-61
2023/09/22 04:32:19;;;;;;;9.88;3.92;;;;;;;23.14;64.38;97851.00;2064762;28;20050;-62
2023/09/22 04:33:21;;;;;;;14.05;4.75;;;;;;;23.13;64.59;97852.06;2062613;28;20587;-62
2023/09/22 04:34:22;;;;;;;13.35;3.83;;;;;;;23.11;64.68;97845.28;2065974;28;20141;-62
2023/09/22 04:35:24;;;;;;;9.80;3.63;;;;;;;23.10;64.74;97840.94;2061045;28;20529;-62
2023/09/22 04:36:25;;;;;;;11.18;4.03;;;;;;;23.11;64.79;97834.47;2063379;28;20984;-62
2023/09/22 04:37:27;;;;;;;12.93;4.93;;;;;;;23.13;64.35;97832.31;2061906;28;20037;-62
2023/09/22 04:38:28;;;;;;;8.85;4.80;;;;;;;23.10;64.83;97847.16;2063813;28;20062;-62
2023/09/22 04:39:32;;;;;;;11.70;4.38;;;;;;;23.12;64.71;97841.50;2063878;28;20045;-62
2023/09/22 04:40:36;;;;;;;10.73;3.58;;;;;;;23.10;64.56;97849.06;2063973;28;20049;-63
2023/09/22 04:41:39;;;;;;;13.88;3.78;;;;;;;23.09;64.75;97850.09;2061880;28;20101;-61
2023/09/22 04:42:40;;;;;;;12.70;5.22;;;;;;;23.13;64.73;97853.97;2064201;28;20054;-62
2023/09/22 04:43:43;;;;;;;12.40;4.70;;;;;;;23.13;64.59;97857.47;2061724;28;22611;-62
2023/09/22 04:44:45;;;;;;;16.05;4.43;;;;;;;23.13;64.95;97853.97;2063602;28;20054;-62
2023/09/22 04:45:46;;;;;;;11.25;3.88;;;;;;;23.10;64.65;97847.16;2064589;28;20062;-62
2023/09/22 04:46:47;;;;;;;12.05;5.40;;;;;;;23.15;64.65;97851.81;2061576;28;20050;-62
2023/09/22 04:47:51;;;;;;;16.90;4.53;;;;;;;23.25;63.59;97853.81;2063279;28;20045;-62
2023/09/22 04:48:55;;;;;;;14.48;3.88;;;;;;;23.21;64.22;97850.81;2059803;28;20092;-61
2023/09/22 04:49:57;;;;;;;16.23;5.05;;;;;;;23.17;64.26;97849.66;2066139;28;20073;-62